Time;durP1;ratioP1;P1;durP2;ratioP2;P2;SDS_P1;SDS_P2;PMS_P1;PMS_P2;Temp;Humidity;BMP_temperature;BMP_pressure;BME280_temperature;BME280_humidity;BME280_pressure;Samples;Min_cycle;Max_cycle;Signal;HPM_P1;HPM_P2
2023/08/29 00:01:58;;;;;;;2.67;2.47;;;;;;;15.14;95.84;99830.56;5044168;28;20217;-75
2023/08/29 00:04:25;;;;;;;2.73;2.53;;;;;;;15.06;96.62;99803.81;5041915;28;20201;-74
2023/08/29 00:06:53;;;;;;;4.33;2.80;;;;;;;14.98;98.09;99777.03;5044307;28;20198;-74
2023/08/29 00:09:19;;;;;;;3.47;3.20;;;;;;;15.13;96.76;99765.78;5045628;28;20209;-75
2023/08/29 00:11:46;;;;;;;3.20;2.63;;;;;;;15.06;97.33;99764.38;5051087;28;20225;-74
2023/08/29 00:14:12;;;;;;;3.17;2.87;;;;;;;14.99;98.46;99745.44;5053871;28;20229;-74
2023/08/29 00:16:39;;;;;;;2.97;2.73;;;;;;;14.98;98.56;99737.63;5054097;28;20212;-75
2023/08/29 00:19:06;;;;;;;2.87;2.67;;;;;;;15.05;98.66;99732.00;5053959;28;20208;-74
2023/08/29 00:21:32;;;;;;;3.23;3.00;;;;;;;15.04;98.21;99746.06;5053812;28;20232;-75
2023/08/29 00:24:03;;;;;;;3.40;2.83;;;;;;;14.97;98.41;99763.06;5054279;28;20208;-74
2023/08/29 00:26:29;;;;;;;3.20;2.90;;;;;;;14.86;98.66;99760.09;5053927;28;20209;-74
2023/08/29 00:28:56;;;;;;;2.60;2.40;;;;;;;15.15;98.20;99763.94;5053892;28;20217;-74
2023/08/29 00:31:22;;;;;;;2.20;2.03;;;;;;;15.37;97.37;99782.16;5053466;28;20213;-74
2023/08/29 00:33:49;;;;;;;1.90;1.80;;;;;;;15.55;96.71;99805.84;5053209;28;20248;-74
2023/08/29 00:36:15;;;;;;;2.47;2.00;;;;;;;15.69;94.89;99834.94;5053807;28;20202;-74
2023/08/29 00:38:42;;;;;;;2.70;2.50;;;;;;;15.73;93.36;99875.16;5053620;28;20754;-74
2023/08/29 00:41:11;;;;;;;2.93;2.20;;;;;;;15.76;93.39;99896.06;5053506;28;20301;-75
2023/08/29 00:43:37;;;;;;;2.77;1.93;;;;;;;15.85;93.26;99900.84;5053401;28;20255;-75
2023/08/29 00:46:04;;;;;;;2.30;1.77;;;;;;;15.87;92.90;99918.25;5053806;28;20212;-74
2023/08/29 00:48:32;;;;;;;2.20;1.90;;;;;;;15.73;92.72;99933.88;5053422;28;20219;-75
2023/08/29 00:50:58;;;;;;;2.23;1.67;;;;;;;15.86;92.92;99940.25;5053468;28;20216;-75
2023/08/29 00:53:25;;;;;;;2.17;1.83;;;;;;;15.99;92.07;99958.06;5053648;28;20252;-74
2023/08/29 00:55:52;;;;;;;1.70;1.60;;;;;;;16.00;91.40;99976.44;5053394;28;20688;-75
2023/08/29 00:58:20;;;;;;;2.67;1.70;;;;;;;16.06;91.29;99983.19;5053091;28;20205;-75
2023/08/29 01:00:47;;;;;;;2.97;1.83;;;;;;;15.97;90.29;100007.31;5053389;28;20206;-75
2023/08/29 01:03:13;;;;;;;2.43;1.90;;;;;;;15.64;90.63;100005.34;5053515;28;20252;-75
2023/08/29 01:05:40;;;;;;;2.13;1.80;;;;;;;15.84;91.10;99996.53;5053199;28;20206;-75
2023/08/29 01:08:07;;;;;;;2.83;1.77;;;;;;;15.99;90.88;100000.19;5053038;28;20207;-75
2023/08/29 01:10:53;;;;;;;3.10;1.80;;;;;;;16.05;90.34;100006.03;5053021;28;20210;-75
2023/08/29 01:13:27;;;;;;;1.50;1.40;;;;;;;16.18;89.64;100013.34;5052742;28;21127;-75
2023/08/29 01:15:59;;;;;;;1.90;1.80;;;;;;;16.12;88.86;100035.53;5052904;28;20730;-75
2023/08/29 01:18:30;;;;;;;1.70;1.60;;;;;;;16.03;89.50;100028.06;5052750;28;20210;-75
2023/08/29 01:21:02;;;;;;;2.60;2.13;;;;;;;15.58;90.83;100017.00;5052821;28;20266;-75
2023/08/29 01:23:36;;;;;;;2.77;2.37;;;;;;;15.56;91.88;99989.91;5052712;28;20225;-75
2023/08/29 01:26:11;;;;;;;1.83;1.73;;;;;;;15.72;92.16;99971.63;5053047;28;20206;-75
2023/08/29 01:28:39;;;;;;;3.17;2.20;;;;;;;15.66;92.05;99967.50;5052664;28;20189;-75
2023/08/29 01:31:06;;;;;;;2.33;1.70;;;;;;;15.63;92.81;99956.28;5052565;28;20212;-75
2023/08/29 01:33:35;;;;;;;1.83;1.73;;;;;;;15.61;92.89;99947.59;5052444;28;20237;-74
2023/08/29 01:36:03;;;;;;;3.27;2.73;;;;;;;15.20;93.38;99951.25;5052524;28;20201;-74
2023/08/29 01:38:29;;;;;;;2.73;2.53;;;;;;;14.99;94.91;99918.91;5052673;28;20205;-74
2023/08/29 01:40:56;;;;;;;2.77;2.60;;;;;;;14.83;96.87;99889.84;5052390;28;20213;-74
2023/08/29 01:43:24;;;;;;;4.80;2.83;;;;;;;14.81;97.80;99867.19;5051923;28;20218;-74
2023/08/29 01:45:50;;;;;;;3.67;3.30;;;;;;;14.57;99.35;99832.34;5052031;28;20725;-74
2023/08/29 01:48:17;;;;;;;3.53;3.30;;;;;;;14.40;100.00;99820.81;5052174;28;20576;-74
2023/08/29 01:50:45;;;;;;;3.47;3.17;;;;;;;14.37;100.00;99805.22;5052430;28;20209;-74
2023/08/29 01:53:12;;;;;;;4.70;4.27;;;;;;;14.32;100.00;99788.81;5052032;28;20772;-74
2023/08/29 01:55:40;;;;;;;4.40;3.53;;;;;;;14.23;100.00;99774.31;5052073;28;20209;-74
2023/08/29 01:58:08;;;;;;;4.57;4.17;;;;;;;14.04;100.00;99771.66;5052134;28;20205;-74
2023/08/29 02:00:37;;;;;;;4.30;4.03;;;;;;;14.02;100.00;99757.75;5052133;28;20417;-74
2023/08/29 02:03:04;;;;;;;4.80;4.33;;;;;;;13.95;100.00;99752.84;5051971;28;20221;-74
2023/08/29 02:05:30;;;;;;;4.90;4.50;;;;;;;13.81;100.00;99745.56;5052336;28;20212;-74
2023/08/29 02:07:57;;;;;;;4.47;4.17;;;;;;;13.88;100.00;99734.75;5052146;28;20216;-74
2023/08/29 02:10:23;;;;;;;4.27;3.90;;;;;;;14.18;100.00;99744.78;5051998;28;20209;-74
2023/08/29 02:12:50;;;;;;;4.20;3.70;;;;;;;14.27;100.00;99764.50;5051828;28;20746;-74
2023/08/29 02:15:16;;;;;;;4.27;3.97;;;;;;;14.03;100.00;99761.22;5051720;28;20239;-74
2023/08/29 02:17:44;;;;;;;4.80;4.40;;;;;;;13.84;100.00;99746.28;5052077;28;20577;-74
2023/08/29 02:20:11;;;;;;;4.10;3.80;;;;;;;13.83;100.00;99730.59;5052244;28;20212;-74
2023/08/29 02:22:38;;;;;;;4.50;4.20;;;;;;;13.86;100.00;99726.09;5051858;28;20236;-74
2023/08/29 02:25:05;;;;;;;5.00;4.60;;;;;;;13.81;100.00;99719.34;5052008;28;20205;-74
2023/08/29 02:27:32;;;;;;;4.67;4.27;;;;;;;13.99;100.00;99722.91;5051774;28;20231;-74
2023/08/29 02:29:59;;;;;;;4.57;4.17;;;;;;;14.13;100.00;99735.41;5051908;28;20271;-74
2023/08/29 02:32:26;;;;;;;4.70;4.00;;;;;;;14.07;100.00;99753.16;5051799;28;20228;-74
2023/08/29 02:34:54;;;;;;;4.97;4.40;;;;;;;13.94;100.00;99757.25;5051701;28;20721;-74
2023/08/29 02:37:20;;;;;;;5.13;4.73;;;;;;;13.75;100.00;99746.69;5051622;28;20606;-74
2023/08/29 02:39:47;;;;;;;5.40;4.70;;;;;;;13.68;100.00;99733.00;5052047;28;20208;-74
2023/08/29 02:42:13;;;;;;;5.37;4.53;;;;;;;13.73;100.00;99719.66;5051580;28;20232;-74
2023/08/29 02:44:40;;;;;;;4.47;4.07;;;;;;;13.75;100.00;99714.34;5051537;28;20198;-74
2023/08/29 02:47:06;;;;;;;5.27;4.87;;;;;;;13.72;100.00;99715.34;5051716;28;20211;-74
2023/08/29 02:49:33;;;;;;;4.90;4.60;;;;;;;13.72;100.00;99710.09;5051782;28;20208;-74
2023/08/29 02:52:01;;;;;;;5.50;4.93;;;;;;;13.65;100.00;99713.91;5051608;28;20232;-74
2023/08/29 02:54:28;;;;;;;5.07;4.70;;;;;;;13.65;100.00;99708.66;5051562;28;20229;-74
2023/08/29 02:56:54;;;;;;;5.50;5.10;;;;;;;13.68;100.00;99708.53;5054976;28;20212;-73
2023/08/29 02:59:21;;;;;;;5.27;4.87;;;;;;;13.80;100.00;99715.03;5055490;28;20204;-74
2023/08/29 03:01:47;;;;;;;5.00;4.60;;;;;;;13.83;100.00;99728.81;5055575;28;20247;-74
2023/08/29 03:04:14;;;;;;;4.50;4.20;;;;;;;13.89;100.00;99748.69;5055548;28;20201;-74
2023/08/29 03:06:40;;;;;;;5.23;4.10;;;;;;;13.89;100.00;99754.81;5055540;28;20219;-74
2023/08/29 03:09:08;;;;;;;5.23;4.93;;;;;;;14.00;100.00;99758.75;5055323;28;20223;-74
2023/08/29 03:11:35;;;;;;;6.03;5.53;;;;;;;14.04;100.00;99776.06;5054980;28;20255;-74
2023/08/29 03:14:03;;;;;;;4.77;4.47;;;;;;;14.09;100.00;99788.06;5055236;28;20704;-74
2023/08/29 03:16:30;;;;;;;5.70;5.20;;;;;;;13.90;100.00;99774.03;5055152;28;20209;-74
2023/08/29 03:18:57;;;;;;;5.30;4.87;;;;;;;13.80;100.00;99764.88;5055238;28;20229;-74
2023/08/29 03:21:23;;;;;;;5.10;4.80;;;;;;;13.76;100.00;99755.44;5055201;28;20213;-74
2023/08/29 03:23:50;;;;;;;5.67;5.17;;;;;;;13.80;100.00;99749.97;5055048;28;20229;-74
2023/08/29 03:26:17;;;;;;;6.10;5.60;;;;;;;13.76;100.00;99739.69;5054922;28;20223;-74
2023/08/29 03:28:45;;;;;;;5.60;5.30;;;;;;;13.71;100.00;99737.25;5055248;28;20216;-74
2023/08/29 03:31:13;;;;;;;5.83;5.33;;;;;;;13.69;100.00;99720.72;5055306;28;20209;-73
2023/08/29 03:33:40;;;;;;;5.50;5.10;;;;;;;13.77;100.00;99713.38;5054940;28;20229;-74
2023/08/29 03:36:07;;;;;;;5.10;4.70;;;;;;;13.83;100.00;99715.72;5054978;28;20209;-74
2023/08/29 03:38:35;;;;;;;5.67;5.17;;;;;;;13.95;100.00;99719.56;5054672;28;20561;-74
2023/08/29 03:41:01;;;;;;;4.87;4.47;;;;;;;14.06;100.00;99719.09;5054496;28;20592;-74
2023/08/29 03:43:30;;;;;;;4.97;4.57;;;;;;;13.95;100.00;99734.47;5054673;28;20735;-74
2023/08/29 03:45:58;;;;;;;5.93;5.43;;;;;;;13.90;100.00;99732.91;5054594;28;20212;-74
2023/08/29 03:48:24;;;;;;;6.87;5.70;;;;;;;13.74;100.00;99734.50;5054556;28;20212;-74
2023/08/29 03:50:51;;;;;;;6.30;5.90;;;;;;;13.79;100.00;99724.63;5054584;28;20213;-74
2023/08/29 03:53:17;;;;;;;5.93;5.33;;;;;;;13.74;100.00;99708.28;5054383;28;20322;-74
2023/08/29 03:55:44;;;;;;;5.83;5.40;;;;;;;13.77;100.00;99708.13;5054388;28;20236;-74
2023/08/29 03:58:11;;;;;;;9.67;6.03;;;;;;;13.66;100.00;99705.13;5054328;28;20597;-74
2023/08/29 04:00:38;;;;;;;7.17;6.60;;;;;;;13.52;100.00;99690.00;5054323;28;20698;-74
2023/08/29 04:03:06;;;;;;;6.73;6.23;;;;;;;13.53;100.00;99682.97;5054404;28;20227;-74
2023/08/29 04:05:34;;;;;;;6.93;6.43;;;;;;;13.57;100.00;99674.91;5054381;28;20266;-74
2023/08/29 04:08:01;;;;;;;6.93;6.43;;;;;;;13.44;100.00;99674.59;5053464;28;20197;-74
2023/08/29 04:10:27;;;;;;;7.93;7.33;;;;;;;13.50;100.00;99671.69;5054444;28;20215;-74
2023/08/29 04:12:54;;;;;;;7.00;6.50;;;;;;;13.46;100.00;99669.28;5054529;28;20238;-74
2023/08/29 04:15:21;;;;;;;7.13;6.73;;;;;;;13.35;100.00;99661.88;5054258;28;20459;-73
2023/08/29 04:17:49;;;;;;;8.50;7.83;;;;;;;13.38;100.00;99655.63;5053965;28;20210;-74
2023/08/29 04:20:16;;;;;;;8.47;7.73;;;;;;;13.33;100.00;99647.97;5054007;28;20205;-74
2023/08/29 04:22:42;;;;;;;8.20;7.60;;;;;;;13.35;100.00;99647.91;5053734;28;20260;-74
2023/08/29 04:25:09;;;;;;;8.13;7.60;;;;;;;13.22;100.00;99642.31;5054102;28;20204;-74
2023/08/29 04:27:37;;;;;;;10.37;8.40;;;;;;;13.28;100.00;99635.06;5054006;28;20216;-74
2023/08/29 04:30:05;;;;;;;8.50;7.73;;;;;;;13.37;100.00;99646.94;5053973;28;20277;-74
2023/08/29 04:32:34;;;;;;;8.60;8.10;;;;;;;13.30;100.00;99656.00;5053687;28;20236;-74
2023/08/29 04:35:02;;;;;;;8.57;7.80;;;;;;;13.55;100.00;99660.16;5053677;28;20231;-74
2023/08/29 04:37:29;;;;;;;9.17;8.57;;;;;;;13.50;100.00;99674.31;5053876;28;20208;-74
2023/08/29 04:39:55;;;;;;;9.17;8.33;;;;;;;13.42;100.00;99672.94;5052153;28;20215;-73
2023/08/29 04:42:22;;;;;;;9.23;8.53;;;;;;;13.40;100.00;99675.66;5053337;28;20745;-73
2023/08/29 04:44:48;;;;;;;9.00;8.30;;;;;;;13.59;100.00;99685.31;5053672;28;20204;-73
2023/08/29 04:47:15;;;;;;;9.50;8.60;;;;;;;13.56;100.00;99694.19;5053559;28;20205;-74
2023/08/29 04:49:43;;;;;;;9.23;8.53;;;;;;;13.48;100.00;99697.13;5053461;28;20700;-73
2023/08/29 04:52:11;;;;;;;9.10;8.50;;;;;;;13.65;100.00;99698.16;5053713;28;20229;-73
2023/08/29 04:54:38;;;;;;;9.10;8.40;;;;;;;13.66;100.00;99702.50;5053596;28;20235;-73
2023/08/29 04:57:05;;;;;;;9.33;8.63;;;;;;;13.65;100.00;99716.53;5053713;28;20234;-73
2023/08/29 04:59:31;;;;;;;9.53;8.73;;;;;;;13.75;100.00;99728.31;5053434;28;20211;-74
2023/08/29 05:01:58;;;;;;;8.67;8.10;;;;;;;13.54;100.00;99724.00;5053285;28;20239;-73
2023/08/29 05:04:24;;;;;;;10.60;8.13;;;;;;;13.72;100.00;99711.88;5053093;28;20700;-73
2023/08/29 05:06:51;;;;;;;8.93;8.30;;;;;;;13.52;100.00;99710.97;5053270;28;20213;-73
2023/08/29 05:09:19;;;;;;;8.83;8.13;;;;;;;13.57;100.00;99711.59;5053220;28;20205;-73
2023/08/29 05:11:45;;;;;;;8.60;7.97;;;;;;;13.62;100.00;99704.41;5053029;28;20215;-73
2023/08/29 05:14:12;;;;;;;9.10;8.30;;;;;;;13.62;100.00;99711.44;5052943;28;20213;-73
2023/08/29 05:16:38;;;;;;;11.87;8.60;;;;;;;13.61;100.00;99717.59;5052881;28;20209;-73
2023/08/29 05:19:07;;;;;;;11.00;10.03;;;;;;;13.57;100.00;99723.88;5052845;28;20206;-74
2023/08/29 05:21:34;;;;;;;9.63;8.83;;;;;;;13.73;100.00;99721.44;5052795;28;20307;-73
2023/08/29 05:24:01;;;;;;;10.33;9.40;;;;;;;13.88;100.00;99731.28;5053196;28;20208;-73
2023/08/29 05:26:31;;;;;;;10.30;9.23;;;;;;;13.77;100.00;99749.25;5052609;28;20705;-73
2023/08/29 05:28:58;;;;;;;9.83;9.13;;;;;;;13.79;100.00;99752.66;5052636;28;20211;-74
2023/08/29 05:31:25;;;;;;;9.63;8.93;;;;;;;13.90;100.00;99753.88;5052749;28;20618;-73
2023/08/29 05:33:51;;;;;;;9.10;8.40;;;;;;;13.81;100.00;99767.41;5052620;28;20258;-73
2023/08/29 05:36:18;;;;;;;9.27;8.00;;;;;;;13.83;100.00;99769.97;5052565;28;20234;-74
2023/08/29 05:38:44;;;;;;;10.37;8.27;;;;;;;13.70;100.00;99767.03;5052518;28;20228;-74
2023/08/29 05:41:11;;;;;;;8.90;8.17;;;;;;;13.62;100.00;99749.00;5052541;28;20207;-73
2023/08/29 05:43:39;;;;;;;9.07;8.47;;;;;;;13.51;100.00;99741.56;5052375;28;20251;-73
2023/08/29 05:46:05;;;;;;;10.50;9.43;;;;;;;13.48;100.00;99722.50;5052660;28;20227;-74
2023/08/29 05:48:32;;;;;;;9.70;9.00;;;;;;;13.54;100.00;99709.13;5052417;28;20667;-73
2023/08/29 05:50:58;;;;;;;10.37;9.63;;;;;;;13.52;100.00;99684.75;5052203;28;20683;-73
2023/08/29 05:53:25;;;;;;;10.33;9.43;;;;;;;13.48;100.00;99681.41;5052228;28;20229;-73
2023/08/29 05:55:51;;;;;;;11.07;10.13;;;;;;;13.54;100.00;99666.31;5052225;28;20245;-73
2023/08/29 05:58:19;;;;;;;10.70;9.70;;;;;;;13.45;100.00;99660.56;5052152;28;20573;-74
2023/08/29 06:00:47;;;;;;;11.60;10.60;;;;;;;13.50;100.00;99655.97;5052258;28;20209;-73
2023/08/29 06:03:14;;;;;;;11.30;10.37;;;;;;;13.44;100.00;99656.25;5052219;28;20234;-74
2023/08/29 06:05:41;;;;;;;11.33;10.43;;;;;;;13.36;100.00;99644.38;5052106;28;20220;-74
2023/08/29 06:08:08;;;;;;;12.17;11.20;;;;;;;13.39;100.00;99637.22;5051931;28;20709;-73
2023/08/29 06:10:34;;;;;;;11.93;10.93;;;;;;;13.41;100.00;99637.16;5052167;28;20212;-74
2023/08/29 06:13:01;;;;;;;12.90;11.80;;;;;;;13.49;100.00;99648.16;5051556;28;20224;-74
2023/08/29 06:15:28;;;;;;;12.63;11.63;;;;;;;13.49;100.00;99645.53;5052114;28;20233;-74
2023/08/29 06:17:56;;;;;;;12.87;11.87;;;;;;;13.43;100.00;99651.91;5051922;28;20235;-74
2023/08/29 06:20:22;;;;;;;13.00;11.80;;;;;;;13.48;100.00;99655.19;5052027;28;20208;-74
2023/08/29 06:22:49;;;;;;;13.10;12.00;;;;;;;13.80;100.00;99662.56;5051804;28;20232;-73
2023/08/29 06:25:15;;;;;;;12.77;11.67;;;;;;;13.81;100.00;99672.97;5051854;28;20203;-74
2023/08/29 06:27:42;;;;;;;12.17;11.37;;;;;;;13.80;100.00;99681.75;5051939;28;20208;-74
2023/08/29 06:30:12;;;;;;;12.87;11.77;;;;;;;14.06;100.00;99692.88;5051470;28;20212;-74
2023/08/29 06:32:39;;;;;;;12.00;11.10;;;;;;;14.02;100.00;99704.41;5051531;28;20648;-74
2023/08/29 06:35:09;;;;;;;11.90;10.87;;;;;;;14.14;100.00;99719.59;5051524;28;20243;-74
2023/08/29 06:37:36;;;;;;;12.13;11.13;;;;;;;14.20;100.00;99742.94;5051565;28;20639;-74
2023/08/29 06:40:04;;;;;;;11.47;10.53;;;;;;;14.36;100.00;99755.38;5051624;28;20208;-74
2023/08/29 06:42:31;;;;;;;11.07;10.27;;;;;;;14.49;100.00;99770.50;5051686;28;20236;-76
2023/08/29 06:44:58;;;;;;;10.43;9.43;;;;;;;14.59;100.00;99776.22;5051851;28;20205;-74
2023/08/29 06:47:25;;;;;;;11.13;10.23;;;;;;;14.68;100.00;99794.16;5051441;28;20209;-74
2023/08/29 06:49:54;;;;;;;10.23;9.53;;;;;;;14.74;100.00;99821.09;5051702;28;20243;-74
2023/08/29 06:52:22;;;;;;;11.20;10.40;;;;;;;14.85;100.00;99839.84;5051351;28;20269;-74
2023/08/29 06:54:49;;;;;;;9.03;8.43;;;;;;;14.96;100.00;99858.59;5051425;28;20220;-74
2023/08/29 06:57:15;;;;;;;9.70;9.00;;;;;;;14.97;100.00;99886.59;5051426;28;20678;-75
2023/08/29 06:59:42;;;;;;;9.73;9.13;;;;;;;14.88;100.00;99877.34;5051515;28;20212;-74
2023/08/29 07:02:08;;;;;;;10.07;9.20;;;;;;;14.92;100.00;99892.97;5051455;28;20233;-74
2023/08/29 07:04:35;;;;;;;10.23;9.47;;;;;;;15.12;100.00;99899.94;5051538;28;20297;-74
2023/08/29 07:07:02;;;;;;;10.20;9.50;;;;;;;15.26;100.00;99914.16;5051259;28;20214;-74
2023/08/29 07:09:30;;;;;;;10.07;9.33;;;;;;;14.99;100.00;99913.66;5051367;28;20741;-74
2023/08/29 07:11:57;;;;;;;9.73;9.07;;;;;;;15.26;100.00;99900.13;5051207;28;20237;-74
2023/08/29 07:14:24;;;;;;;9.07;8.37;;;;;;;15.24;100.00;99923.03;5051252;28;20684;-74
2023/08/29 07:16:50;;;;;;;9.07;8.37;;;;;;;15.33;100.00;99929.66;5051272;28;20232;-74
2023/08/29 07:19:17;;;;;;;9.03;8.40;;;;;;;15.45;100.00;99945.69;5051155;28;20209;-74
2023/08/29 07:21:44;;;;;;;9.83;9.03;;;;;;;15.48;100.00;99968.38;5051020;28;20209;-74
2023/08/29 07:24:11;;;;;;;9.27;8.57;;;;;;;15.21;100.00;99973.13;5051365;28;20202;-74
2023/08/29 07:26:38;;;;;;;9.90;9.20;;;;;;;15.08;100.00;99963.19;5051387;28;20217;-74
2023/08/29 07:29:05;;;;;;;10.37;9.57;;;;;;;15.33;100.00;99953.31;5051323;28;20207;-74
2023/08/29 07:31:31;;;;;;;9.83;9.10;;;;;;;15.41;100.00;99959.06;5051270;28;20209;-74
2023/08/29 07:33:58;;;;;;;9.93;8.67;;;;;;;15.54;100.00;99972.47;5051156;28;20213;-74
2023/08/29 07:36:25;;;;;;;9.90;9.20;;;;;;;15.51;100.00;99973.47;5050930;28;20233;-75
2023/08/29 07:38:51;;;;;;;9.57;8.97;;;;;;;15.57;100.00;99967.94;5051353;28;20210;-75
2023/08/29 07:41:18;;;;;;;9.87;9.17;;;;;;;15.58;99.45;99988.06;5051945;28;20216;-74
2023/08/29 07:43:46;;;;;;;10.23;9.47;;;;;;;15.62;99.46;99996.69;5054876;28;20257;-74
2023/08/29 07:46:13;;;;;;;10.00;9.30;;;;;;;15.46;100.00;99992.13;5054745;28;20233;-75
2023/08/29 07:48:39;;;;;;;10.47;9.63;;;;;;;15.64;99.74;99998.31;5054483;28;20215;-74
2023/08/29 07:51:06;;;;;;;9.80;9.00;;;;;;;15.54;99.99;100007.56;5054535;28;20741;-75
2023/08/29 07:53:32;;;;;;;10.63;9.93;;;;;;;15.44;100.00;99990.47;5054712;28;20228;-74
2023/08/29 07:55:59;;;;;;;9.50;8.80;;;;;;;15.68;99.69;100002.50;5054661;28;20229;-75
2023/08/29 07:58:25;;;;;;;9.40;8.80;;;;;;;15.73;98.00;100025.97;5054556;28;20217;-74
2023/08/29 08:00:53;;;;;;;10.07;9.30;;;;;;;15.74;98.12;100040.84;5054375;28;20216;-75
2023/08/29 08:03:20;;;;;;;9.57;8.90;;;;;;;15.86;98.05;100032.38;5054209;28;20229;-75
2023/08/29 08:05:46;;;;;;;10.40;9.60;;;;;;;15.69;98.71;100034.91;5054537;28;20202;-75
2023/08/29 08:08:14;;;;;;;10.43;9.63;;;;;;;15.68;100.00;100005.13;5054523;28;20201;-75
2023/08/29 08:10:40;;;;;;;9.87;9.27;;;;;;;15.53;100.00;99987.41;5054191;28;20206;-75
2023/08/29 08:13:07;;;;;;;10.47;9.67;;;;;;;15.77;100.00;99995.97;5054207;28;20225;-75
2023/08/29 08:15:33;;;;;;;9.63;8.77;;;;;;;15.96;98.75;100011.75;5054160;28;20225;-75
2023/08/29 08:18:01;;;;;;;10.20;9.30;;;;;;;16.07;97.20;100043.69;5053662;28;20667;-75
2023/08/29 08:20:28;;;;;;;9.33;8.70;;;;;;;15.85;97.15;100062.25;5054154;28;20689;-75
2023/08/29 08:22:55;;;;;;;10.37;9.60;;;;;;;16.11;96.91;100065.41;5053959;28;20745;-75
2023/08/29 08:25:21;;;;;;;10.07;9.23;;;;;;;16.37;95.83;100079.13;5054127;28;20210;-74
2023/08/29 08:27:48;;;;;;;9.10;8.50;;;;;;;16.50;94.08;100105.72;5053873;28;20221;-75
2023/08/29 08:30:14;;;;;;;8.93;8.30;;;;;;;16.59;94.68;100105.25;5053891;28;20208;-75
2023/08/29 08:32:41;;;;;;;9.30;8.70;;;;;;;16.67;94.12;100119.78;5053680;28;20715;-75
2023/08/29 08:35:10;;;;;;;9.00;8.50;;;;;;;16.86;93.33;100129.44;5053995;28;20205;-75
2023/08/29 08:37:37;;;;;;;8.47;7.93;;;;;;;16.92;93.14;100141.47;5053670;28;20225;-75
2023/08/29 08:40:09;;;;;;;9.00;8.40;;;;;;;16.84;92.28;100149.75;5053829;28;20209;-75
2023/08/29 08:42:36;;;;;;;9.57;8.87;;;;;;;16.91;92.70;100153.81;5053584;28;20237;-74
2023/08/29 08:45:06;;;;;;;9.93;9.13;;;;;;;17.02;92.19;100158.53;5053481;28;20214;-74
2023/08/29 08:47:34;;;;;;;9.20;8.60;;;;;;;17.20;91.84;100164.66;5053685;28;20203;-74
2023/08/29 08:50:00;;;;;;;8.80;8.00;;;;;;;17.17;90.16;100196.47;5053378;28;20222;-74
2023/08/29 08:52:31;;;;;;;8.63;8.00;;;;;;;16.99;90.83;100201.72;5053254;28;20227;-75
2023/08/29 08:54:58;;;;;;;8.23;7.63;;;;;;;17.24;90.21;100196.09;5053176;28;20209;-74
2023/08/29 08:57:26;;;;;;;8.53;7.93;;;;;;;17.40;89.46;100206.72;5053209;28;20237;-74
2023/08/29 08:59:52;;;;;;;8.10;7.37;;;;;;;17.54;88.85;100221.84;5053589;28;20213;-75
2023/08/29 09:02:19;;;;;;;7.60;7.03;;;;;;;17.67;87.78;100237.88;5053072;28;20236;-75
2023/08/29 09:04:46;;;;;;;8.17;7.67;;;;;;;17.71;87.11;100260.56;5053168;28;20299;-75
2023/08/29 09:07:12;;;;;;;8.20;7.43;;;;;;;17.55;86.21;100286.88;5053206;28;20208;-75
2023/08/29 09:09:40;;;;;;;8.77;7.43;;;;;;;17.63;87.64;100263.59;5053020;28;20211;-75
2023/08/29 09:12:07;;;;;;;7.80;7.30;;;;;;;17.63;86.64;100270.66;5052440;28;20635;-75
2023/08/29 09:14:33;;;;;;;7.60;7.10;;;;;;;17.77;85.87;100294.56;5052828;28;20219;-75
2023/08/29 09:17:01;;;;;;;7.27;6.67;;;;;;;17.55;87.09;100276.31;5052717;28;20226;-75
2023/08/29 09:19:33;;;;;;;8.03;7.43;;;;;;;17.70;86.35;100285.25;5053111;28;20232;-74
2023/08/29 09:21:59;;;;;;;8.13;7.60;;;;;;;17.86;86.04;100285.38;5052664;28;20240;-75
2023/08/29 09:24:33;;;;;;;7.47;6.80;;;;;;;18.12;85.62;100304.28;5052692;28;20212;-75
2023/08/29 09:27:03;;;;;;;7.83;7.33;;;;;;;18.21;84.52;100319.63;5069477;28;20205;-75
2023/08/29 09:29:31;;;;;;;7.30;6.90;;;;;;;18.32;83.52;100343.72;5072658;28;20258;-75
2023/08/29 09:31:59;;;;;;;8.97;8.23;;;;;;;18.36;84.49;100329.41;5072268;28;20231;-75
2023/08/29 09:34:25;;;;;;;7.87;7.33;;;;;;;18.27;82.65;100348.38;5072322;28;20204;-75
2023/08/29 09:36:53;;;;;;;8.20;7.60;;;;;;;17.64;84.63;100349.78;5072151;28;20231;-75
2023/08/29 09:39:20;;;;;;;7.93;7.43;;;;;;;17.94;84.83;100312.22;5072125;28;20663;-75
2023/08/29 09:41:58;;;;;;;7.70;7.00;;;;;;;18.18;84.62;100320.66;5071976;28;20747;-75
2023/08/29 09:44:26;;;;;;;8.20;7.70;;;;;;;18.31;83.93;100330.56;5072290;28;20229;-75
2023/08/29 09:46:53;;;;;;;8.73;8.13;;;;;;;18.32;84.00;100327.00;5059576;28;20578;-75
2023/08/29 09:49:19;;;;;;;8.03;7.37;;;;;;;18.37;84.08;100335.53;5052256;28;20213;-75
2023/08/29 09:51:46;;;;;;;8.17;7.57;;;;;;;18.29;83.71;100332.44;5052152;28;20218;-75
2023/08/29 09:54:17;;;;;;;7.77;7.20;;;;;;;18.43;82.89;100341.38;5052205;28;20210;-75
2023/08/29 09:56:44;;;;;;;7.47;6.80;;;;;;;18.58;82.45;100349.41;5052322;28;20240;-75
2023/08/29 09:59:12;;;;;;;7.67;7.00;;;;;;;18.70;83.16;100332.88;5052055;28;20669;-75
2023/08/29 10:01:42;;;;;;;7.50;7.00;;;;;;;18.76;82.07;100340.47;5051918;28;20715;-75
2023/08/29 10:04:11;;;;;;;8.33;7.00;;;;;;;18.84;81.52;100361.22;5052209;28;20239;-75
2023/08/29 10:06:38;;;;;;;7.60;7.10;;;;;;;18.63;80.07;100382.59;5051447;28;20614;-75
2023/08/29 10:09:06;;;;;;;7.33;6.37;;;;;;;18.52;80.56;100387.59;5052257;28;20250;-75
2023/08/29 10:11:33;;;;;;;8.03;7.40;;;;;;;18.48;80.49;100391.31;5051728;28;20208;-75
2023/08/29 10:13:59;;;;;;;7.03;6.50;;;;;;;18.45;82.15;100351.81;5051789;28;20227;-75
2023/08/29 10:16:27;;;;;;;8.20;7.60;;;;;;;18.12;82.26;100349.19;5051916;28;20231;-75
2023/08/29 10:18:56;;;;;;;6.83;6.27;;;;;;;17.96;83.36;100310.34;5051641;28;20226;-75
2023/08/29 10:21:24;;;;;;;7.30;6.60;;;;;;;18.05;83.18;100301.09;5051921;28;20549;-75
2023/08/29 10:23:51;;;;;;;6.27;5.83;;;;;;;18.16;82.88;100297.91;5052115;28;20250;-75
2023/08/29 10:26:18;;;;;;;6.60;6.00;;;;;;;18.33;82.78;100297.00;5051873;28;20203;-75
2023/08/29 10:28:46;;;;;;;4.93;4.63;;;;;;;18.49;81.86;100316.38;5051769;28;20691;-75
2023/08/29 10:31:14;;;;;;;6.17;5.73;;;;;;;18.53;80.53;100346.13;5051516;28;20204;-75
2023/08/29 10:33:41;;;;;;;5.37;5.03;;;;;;;18.76;80.39;100344.91;5051639;28;20229;-75
2023/08/29 10:36:13;;;;;;;6.27;5.77;;;;;;;18.88;78.91;100391.03;5051638;28;20665;-75
2023/08/29 10:38:40;;;;;;;5.63;5.23;;;;;;;18.79;77.39;100417.03;5051847;28;20204;-75
2023/08/29 10:41:07;;;;;;;4.50;4.20;;;;;;;18.76;78.34;100419.78;5051568;28;20686;-75
2023/08/29 10:43:34;;;;;;;7.40;4.87;;;;;;;18.62;77.25;100427.63;5051514;28;20235;-75
2023/08/29 10:46:14;;;;;;;5.03;4.63;;;;;;;18.53;78.53;100404.28;5051507;28;20208;-75
2023/08/29 10:48:55;;;;;;;4.80;4.40;;;;;;;18.79;78.92;100384.38;5051728;28;20211;-75
2023/08/29 10:51:25;;;;;;;4.30;4.00;;;;;;;18.65;76.99;100423.03;5051592;28;20248;-75
2023/08/29 10:53:53;;;;;;;5.00;4.60;;;;;;;18.88;75.93;100451.84;5052012;28;20318;-75
2023/08/29 10:56:24;;;;;;;4.70;4.40;;;;;;;18.93;76.01;100447.16;5051264;28;20777;-75
2023/08/29 10:58:51;;;;;;;5.53;5.10;;;;;;;18.80;76.01;100450.47;5051895;28;20217;-75
2023/08/29 11:01:31;;;;;;;5.23;4.73;;;;;;;18.98;75.01;100453.91;5051513;28;20216;-75
2023/08/29 11:03:59;;;;;;;4.07;3.67;;;;;;;19.10;75.58;100443.63;5051455;28;20219;-75
2023/08/29 11:06:28;;;;;;;4.10;3.90;;;;;;;19.06;74.10;100456.16;5051507;28;20206;-74
2023/08/29 11:09:20;;;;;;;4.10;3.87;;;;;;;19.27;74.62;100470.00;5051339;28;20206;-75
2023/08/29 11:12:06;;;;;;;3.53;3.23;;;;;;;19.15;73.81;100486.56;5051300;28;20216;-75
2023/08/29 11:14:50;;;;;;;5.90;3.17;;;;;;;18.88;73.36;100510.91;5051491;28;20220;-75
2023/08/29 11:17:22;;;;;;;2.83;2.63;;;;;;;19.14;72.49;100506.00;5053439;28;20771;-75
2023/08/29 11:19:52;;;;;;;2.53;2.33;;;;;;;18.54;72.85;100522.34;5055424;28;20253;-75
2023/08/29 11:22:22;;;;;;;4.13;3.17;;;;;;;18.70;72.64;100512.69;5055206;28;20228;-74
2023/08/29 11:24:54;;;;;;;3.40;3.10;;;;;;;18.97;74.04;100488.41;5055158;28;20203;-75
2023/08/29 11:27:21;;;;;;;3.17;2.90;;;;;;;19.22;72.74;100491.41;5055174;28;20206;-74